Time;durP1;ratioP1;P1;durP2;ratioP2;P2;SDS_P1;SDS_P2;PMS_P1;PMS_P2;Temp;Humidity;BMP_temperature;BMP_pressure;BME280_temperature;BME280_humidity;BME280_pressure;Samples;Min_cycle;Max_cycle;Signal;HPM_P1;HPM_P2
2022/04/19 00:01:15;;;;;;;5.50;2.40;;;;;;;21.17;33.36;101416.38;5016692;28;20382;-64
2022/04/19 00:03:40;;;;;;;4.30;2.50;;;;;;;21.16;33.39;101413.88;5016706;28;20046;-64
2022/04/19 00:06:06;;;;;;;3.87;2.20;;;;;;;21.15;33.42;101415.66;5015888;28;20033;-64
2022/04/19 00:08:31;;;;;;;4.22;2.20;;;;;;;21.14;33.25;101415.78;5016563;28;20295;-63
2022/04/19 00:10:59;;;;;;;4.57;2.40;;;;;;;21.11;33.61;101411.59;5016427;28;20037;-63
2022/04/19 00:13:24;;;;;;;4.38;2.42;;;;;;;21.10;33.52;101414.38;5016006;28;20393;-64
2022/04/19 00:15:55;;;;;;;5.40;2.38;;;;;;;21.08;33.34;101406.56;5016141;28;20038;-63
2022/04/19 00:18:21;;;;;;;4.63;2.67;;;;;;;21.08;33.41;101405.69;5016472;28;20022;-63
2022/04/19 00:20:47;;;;;;;4.40;2.50;;;;;;;21.06;33.34;101408.50;5015858;28;20470;-63
2022/04/19 00:23:15;;;;;;;6.20;2.53;;;;;;;21.05;33.36;101406.00;5016144;28;20041;-63
2022/04/19 00:25:45;;;;;;;5.35;2.67;;;;;;;21.02;33.50;101402.59;5016341;28;20466;-63
2022/04/19 00:28:12;;;;;;;4.75;2.63;;;;;;;21.00;33.32;101401.91;5015191;28;20515;-63
2022/04/19 00:30:38;;;;;;;4.28;2.33;;;;;;;20.99;33.32;101400.22;5016144;28;20061;-63
2022/04/19 00:33:07;;;;;;;4.30;2.28;;;;;;;20.98;33.38;101395.91;5015805;28;20076;-63
2022/04/19 00:35:33;;;;;;;4.95;2.85;;;;;;;20.97;33.59;101394.22;5015732;28;20021;-63
2022/04/19 00:37:59;;;;;;;5.28;2.63;;;;;;;20.95;33.40;101390.00;5016070;28;20084;-62
2022/04/19 00:40:25;;;;;;;5.75;2.78;;;;;;;20.95;33.42;101392.66;5016082;28;20096;-63
2022/04/19 00:42:51;;;;;;;4.95;2.50;;;;;;;20.92;33.34;101388.47;5015148;28;20028;-63
2022/04/19 00:45:16;;;;;;;5.68;2.50;;;;;;;20.91;33.40;101394.72;5016097;28;20022;-64
2022/04/19 00:47:41;;;;;;;5.23;2.40;;;;;;;20.89;33.35;101388.72;5015832;28;20442;-64
2022/04/19 00:50:08;;;;;;;7.32;2.63;;;;;;;20.88;33.51;101389.69;5014999;28;20299;-64
2022/04/19 00:52:40;;;;;;;5.25;3.08;;;;;;;20.87;33.56;101393.34;5016005;28;20026;-64
2022/04/19 00:55:09;;;;;;;4.50;2.50;;;;;;;20.85;33.70;101392.59;5014834;28;20033;-63
2022/04/19 00:57:37;;;;;;;5.15;2.58;;;;;;;20.84;33.43;101390.94;5015760;28;20049;-63
2022/04/19 01:00:08;;;;;;;4.97;2.70;;;;;;;20.81;33.42;101393.84;5015341;28;20114;-63
2022/04/19 01:02:33;;;;;;;5.25;2.47;;;;;;;20.83;33.52;101397.19;5013802;28;20022;-64
2022/04/19 01:05:00;;;;;;;4.82;2.63;;;;;;;20.81;33.46;101391.19;5015477;28;20037;-64
2022/04/19 01:07:25;;;;;;;4.75;2.28;;;;;;;20.79;33.54;101393.09;5015691;28;20101;-64
2022/04/19 01:09:50;;;;;;;4.90;2.75;;;;;;;20.78;33.67;101392.28;5014440;28;20113;-63
2022/04/19 01:15:13;;;;;;;5.88;2.70;;;;;;;20.78;33.50;101388.81;5015454;28;20037;-64
2022/04/19 01:17:40;;;;;;;4.68;2.42;;;;;;;20.77;33.49;101387.94;5014706;28;20042;-64
2022/04/19 01:20:10;;;;;;;4.40;2.50;;;;;;;20.76;33.55;101386.28;5015076;28;20026;-64
2022/04/19 01:22:39;;;;;;;4.90;2.50;;;;;;;20.74;33.64;101379.41;5015265;28;20118;-64
2022/04/19 01:25:06;;;;;;;4.53;2.75;;;;;;;20.74;33.29;101376.78;5014061;28;20033;-64
2022/04/19 01:27:32;;;;;;;4.90;2.80;;;;;;;20.72;33.58;101374.25;5015324;28;20034;-64
2022/04/19 01:30:05;;;;;;;4.70;2.67;;;;;;;20.71;33.62;101377.88;5014795;28;20029;-64
2022/04/19 01:32:31;;;;;;;4.78;2.60;;;;;;;20.70;33.59;101376.19;5015149;28;20033;-64
2022/04/19 01:35:19;;;;;;;4.78;2.83;;;;;;;20.69;33.58;101373.69;5014770;28;20034;-64
2022/04/19 01:37:46;;;;;;;4.45;2.58;;;;;;;20.69;33.57;101371.03;5014452;28;20033;-64
2022/04/19 01:40:19;;;;;;;5.45;2.95;;;;;;;20.67;33.52;101373.81;5014776;28;20029;-63
2022/04/19 01:42:58;;;;;;;4.28;2.78;;;;;;;20.67;33.61;101370.31;5014984;28;20034;-64
2022/04/19 01:45:28;;;;;;;4.30;2.58;;;;;;;20.66;33.48;101372.13;5014069;28;20037;-63
2022/04/19 01:47:58;;;;;;;5.22;2.78;;;;;;;20.64;33.62;101363.47;5014346;28;20080;-63
2022/04/19 01:50:28;;;;;;;4.88;2.88;;;;;;;20.63;33.53;101369.69;5014955;28;20370;-63
2022/04/19 01:52:56;;;;;;;5.07;2.90;;;;;;;20.61;33.51;101364.53;5013831;28;20026;-63
2022/04/19 01:55:21;;;;;;;5.53;2.80;;;;;;;20.61;33.51;101367.16;5014822;28;20026;-63
2022/04/19 01:57:49;;;;;;;4.95;3.10;;;;;;;20.59;33.39;101366.47;5014719;28;20393;-63
2022/04/19 02:00:15;;;;;;;4.90;2.80;;;;;;;20.60;33.69;101375.25;5013797;28;20482;-63
2022/04/19 02:02:45;;;;;;;5.32;2.90;;;;;;;20.59;33.56;101369.13;5014459;28;20030;-63
2022/04/19 02:05:14;;;;;;;4.72;3.00;;;;;;;20.57;33.61;101365.75;5014352;28;20026;-63
2022/04/19 02:07:44;;;;;;;5.03;2.80;;;;;;;20.57;33.56;101364.91;5014492;28;20044;-63
2022/04/19 02:10:11;;;;;;;4.68;2.58;;;;;;;20.56;33.67;101365.88;5013971;28;20477;-63
2022/04/19 02:12:38;;;;;;;4.75;3.00;;;;;;;20.55;33.70;101367.69;5013595;28;20041;-63
2022/04/19 02:15:04;;;;;;;4.15;2.55;;;;;;;20.55;33.70;101370.31;5013552;28;20382;-64
2022/04/19 02:17:30;;;;;;;4.93;2.95;;;;;;;20.53;33.87;101364.31;5014038;28;20045;-63
2022/04/19 02:19:59;;;;;;;5.47;2.85;;;;;;;20.52;33.76;101367.97;5013408;28;20057;-63
2022/04/19 02:22:29;;;;;;;4.50;2.72;;;;;;;20.52;33.47;101364.47;5014342;28;20021;-63
2022/04/19 02:25:00;;;;;;;4.82;2.90;;;;;;;20.51;33.57;101362.78;5013954;28;20032;-63
2022/04/19 02:27:28;;;;;;;4.60;2.88;;;;;;;20.50;33.61;101364.59;5013742;28;20371;-64
2022/04/19 02:29:56;;;;;;;4.97;2.88;;;;;;;20.48;33.68;101348.81;5014659;28;20104;-63
2022/04/19 02:32:23;;;;;;;4.88;3.05;;;;;;;20.47;33.55;101352.47;5015061;28;20021;-63
2022/04/19 02:34:52;;;;;;;4.95;2.80;;;;;;;20.47;33.53;101351.59;5014089;28;20473;-63
2022/04/19 02:37:17;;;;;;;4.53;2.72;;;;;;;20.45;33.56;101351.72;5014263;28;20033;-63
2022/04/19 02:39:42;;;;;;;4.90;2.90;;;;;;;20.45;33.47;101356.19;5014014;28;20033;-63
2022/04/19 02:42:08;;;;;;;5.00;3.20;;;;;;;20.44;33.62;101352.72;5012842;28;20109;-63
2022/04/19 02:44:34;;;;;;;5.30;2.88;;;;;;;20.43;33.56;101356.31;5014027;28;20030;-63
2022/04/19 02:46:59;;;;;;;4.20;2.88;;;;;;;20.42;33.63;101354.63;5013432;28;20609;-64
2022/04/19 02:49:25;;;;;;;4.95;2.88;;;;;;;20.41;33.69;101350.31;5012996;28;20021;-63
2022/04/19 02:51:55;;;;;;;4.83;3.17;;;;;;;20.40;33.51;101345.97;5013417;28;20030;-62
2022/04/19 02:54:20;;;;;;;4.70;2.90;;;;;;;20.40;33.66;101353.09;5013681;28;20268;-63
2022/04/19 02:56:46;;;;;;;4.97;3.17;;;;;;;20.38;33.64;101345.28;5012921;28;20022;-63
2022/04/19 02:59:11;;;;;;;6.10;2.97;;;;;;;20.38;33.49;101347.09;5013407;28;20030;-63
2022/04/19 03:01:36;;;;;;;4.65;2.72;;;;;;;20.36;33.52;101343.72;5012980;28;20037;-63
2022/04/19 03:04:02;;;;;;;4.82;2.60;;;;;;;20.36;33.27;101341.06;5013328;28;20462;-64
2022/04/19 03:06:27;;;;;;;5.00;3.00;;;;;;;20.35;33.58;101339.41;5013584;28;20033;-64
2022/04/19 03:08:53;;;;;;;5.05;2.92;;;;;;;20.34;33.62;101341.19;5012388;28;20348;-64
2022/04/19 03:11:21;;;;;;;4.72;3.03;;;;;;;20.33;33.47;101339.53;5013285;28;20022;-64
2022/04/19 03:13:55;;;;;;;5.20;3.28;;;;;;;20.33;33.65;101341.31;5013613;28;20034;-64
2022/04/19 03:16:20;;;;;;;5.18;3.45;;;;;;;20.32;33.40;101337.00;5012502;28;20045;-64
2022/04/19 03:18:45;;;;;;;5.32;3.70;;;;;;;20.29;33.48;101340.75;5013290;28;20026;-64
2022/04/19 03:21:11;;;;;;;5.45;3.25;;;;;;;20.29;33.54;101344.22;5012977;28;20037;-64
2022/04/19 03:29:06;;;;;;;;;;;;;;;20.28;33.48;101342.56;5013438;28;20049;-64
2022/04/19 03:31:32;;;;;;;5.20;3.20;;;;;;;20.28;33.55;101344.34;5012469;28;19913;-64
2022/04/19 03:33:57;;;;;;;5.60;3.05;;;;;;;20.27;33.63;101346.16;5012871;28;20322;-63
2022/04/19 03:36:23;;;;;;;5.97;3.35;;;;;;;20.27;33.37;101346.16;5012986;28;20026;-64
2022/04/19 03:38:48;;;;;;;6.55;3.55;;;;;;;20.26;33.58;101346.28;5012020;28;20382;-64
2022/04/19 03:41:13;;;;;;;6.27;3.40;;;;;;;20.25;33.46;101349.88;5013264;28;20057;-64
2022/04/19 03:43:41;;;;;;;5.35;3.13;;;;;;;20.25;33.64;101344.59;5013162;28;20271;-64
2022/04/19 03:46:08;;;;;;;5.10;3.10;;;;;;;20.24;33.57;101338.47;5012537;28;20042;-64
2022/04/19 03:48:33;;;;;;;5.80;3.60;;;;;;;20.23;33.64;101341.25;5012795;28;20080;-64
2022/04/19 03:50:58;;;;;;;5.32;3.15;;;;;;;20.20;33.70;101342.34;5011920;28;20025;-64
2022/04/19 03:53:24;;;;;;;5.07;3.40;;;;;;;20.21;33.53;101348.47;5012906;28;20033;-64
2022/04/19 03:55:49;;;;;;;6.05;3.45;;;;;;;20.19;33.55;101345.94;5012695;28;20275;-64
2022/04/19 03:58:14;;;;;;;6.13;3.38;;;;;;;20.19;33.66;101340.66;5012362;28;20037;-64
2022/04/19 04:00:40;;;;;;;4.68;3.13;;;;;;;20.18;33.73;101343.44;5013067;28;20034;-64
2022/04/19 04:03:06;;;;;;;5.33;3.40;;;;;;;20.17;33.53;101339.97;5012540;28;20022;-64
2022/04/19 04:05:35;;;;;;;6.07;3.65;;;;;;;20.15;33.47;101338.38;5012121;28;20267;-64
2022/04/19 04:08:00;;;;;;;6.63;3.50;;;;;;;20.17;33.46;101347.03;5012416;28;20478;-64
2022/04/19 04:10:26;;;;;;;5.40;3.40;;;;;;;20.15;33.51;101343.69;5012917;28;20030;-63
2022/04/19 04:12:51;;;;;;;6.70;3.45;;;;;;;20.15;33.43;101343.69;5011660;28;20760;-63
2022/04/19 04:15:16;;;;;;;5.28;3.25;;;;;;;20.14;33.44;101344.63;5012519;28;20066;-64
2022/04/19 04:17:44;;;;;;;5.75;3.60;;;;;;;20.13;33.35;101343.81;5012719;28;20077;-64
2022/04/19 04:20:11;;;;;;;5.45;3.50;;;;;;;20.12;33.35;101350.06;5011386;28;20034;-63
2022/04/19 04:22:39;;;;;;;5.38;3.75;;;;;;;20.11;33.51;101345.75;5012580;28;20049;-63
2022/04/19 04:25:04;;;;;;;5.60;3.13;;;;;;;20.11;33.57;101348.41;5012143;28;20026;-63
2022/04/19 04:27:30;;;;;;;6.80;3.53;;;;;;;20.09;33.32;101351.16;5010910;28;20050;-63
2022/04/19 04:29:55;;;;;;;5.35;3.20;;;;;;;20.09;33.51;101345.00;5012241;28;20030;-64
2022/04/19 04:32:20;;;;;;;5.57;3.80;;;;;;;20.09;33.57;101351.16;5012622;28;20025;-64
2022/04/19 04:34:45;;;;;;;5.13;3.50;;;;;;;20.06;33.30;101345.25;5011486;28;20264;-64
2022/04/19 04:37:11;;;;;;;5.83;3.53;;;;;;;20.07;33.52;101344.31;5013606;28;20271;-64
2022/04/19 04:39:36;;;;;;;4.53;3.10;;;;;;;20.05;33.75;101346.25;5015413;28;20287;-64
2022/04/19 04:42:02;;;;;;;5.40;3.30;;;;;;;20.05;33.58;101349.72;5015050;28;20029;-63
2022/04/19 04:44:27;;;;;;;4.82;3.08;;;;;;;20.06;33.53;101355.84;5016079;28;20026;-64
2022/04/19 04:49:42;;;;;;;6.70;3.75;;;;;;;20.04;33.35;101361.25;5015822;28;20044;-64
2022/04/19 04:52:10;;;;;;;6.18;3.30;;;;;;;20.03;33.53;101356.94;5015538;28;20506;-63
2022/04/19 04:54:37;;;;;;;5.18;3.45;;;;;;;20.02;33.49;101354.44;5014923;28;20437;-63
2022/04/19 04:57:03;;;;;;;5.25;3.45;;;;;;;20.02;33.45;101352.63;5015353;28;20097;-64
2022/04/19 04:59:30;;;;;;;5.65;3.75;;;;;;;20.02;33.58;101357.91;5015431;28;20080;-63
2022/04/19 05:01:57;;;;;;;5.00;3.20;;;;;;;20.03;33.29;101358.78;5014707;28;20125;-63
2022/04/19 05:04:25;;;;;;;5.00;3.17;;;;;;;20.03;33.31;101358.78;5015568;28;20037;-63
2022/04/19 05:06:50;;;;;;;5.60;3.67;;;;;;;20.02;33.45;101355.25;5015184;28;20018;-64
2022/04/19 05:09:15;;;;;;;7.25;3.58;;;;;;;20.01;33.57;101355.38;5014563;28;20397;-63
2022/04/19 05:11:41;;;;;;;4.82;3.25;;;;;;;20.02;33.43;101359.72;5015326;28;20022;-63
2022/04/19 05:14:10;;;;;;;5.78;3.17;;;;;;;20.01;33.38;101358.03;5014980;28;20033;-64
2022/04/19 05:16:36;;;;;;;4.88;3.10;;;;;;;20.01;33.33;101360.69;5014368;28;20108;-63
2022/04/19 05:19:02;;;;;;;5.30;3.42;;;;;;;19.98;33.40;101355.63;5015085;28;20034;-63
2022/04/19 05:21:27;;;;;;;5.45;3.42;;;;;;;20.00;33.33;101364.31;5015239;28;20054;-63
2022/04/19 05:23:52;;;;;;;7.33;3.47;;;;;;;19.99;33.33;101359.97;5014475;28;20064;-63
2022/04/19 05:26:17;;;;;;;5.83;3.57;;;;;;;19.98;33.09;101367.06;5015065;28;20263;-62
2022/04/19 05:28:46;;;;;;;5.87;3.70;;;;;;;19.97;33.37;101373.31;5014905;28;20287;-62
2022/04/19 05:31:11;;;;;;;5.03;3.20;;;;;;;19.98;33.35;101367.06;5014181;28;20268;-62
2022/04/19 05:33:36;;;;;;;5.32;3.28;;;;;;;19.99;33.55;101365.25;5014795;28;20485;-63
2022/04/19 05:36:02;;;;;;;6.07;3.50;;;;;;;19.98;33.40;101363.56;5014793;28;20473;-63
2022/04/19 05:38:27;;;;;;;5.05;3.10;;;;;;;19.98;33.10;101364.44;5014228;28;20123;-61
2022/04/19 05:40:52;;;;;;;5.10;3.27;;;;;;;20.00;33.53;101365.13;5014580;28;20033;-63
2022/04/19 05:43:18;;;;;;;4.53;2.80;;;;;;;20.03;33.79;101364.88;5013977;28;20268;-63
2022/04/19 05:45:43;;;;;;;4.95;2.90;;;;;;;20.07;34.18;101371.59;5014768;28;20112;-63
2022/04/19 05:48:08;;;;;;;3.92;2.40;;;;;;;20.09;34.19;101369.69;5013497;28;20026;-63
2022/04/19 05:50:34;;;;;;;4.90;2.70;;;;;;;20.11;34.48;101367.75;5013956;28;20053;-63
2022/04/19 05:52:59;;;;;;;4.90;2.57;;;;;;;20.15;34.82;101372.78;5014283;28;20351;-63
2022/04/19 05:55:27;;;;;;;4.35;2.47;;;;;;;20.18;34.85;101373.38;5014436;28;20275;-63
2022/04/19 05:57:53;;;;;;;5.50;2.60;;;;;;;20.21;34.76;101370.47;5013288;28;20072;-63
2022/04/19 06:00:19;;;;;;;4.78;2.50;;;;;;;20.25;34.87;101379.00;5014340;28;20478;-63
2022/04/19 06:05:28;;;;;;;6.03;3.08;;;;;;;20.35;34.52;101384.41;5013935;28;20036;-63
2022/04/19 06:07:54;;;;;;;5.60;2.97;;;;;;;20.37;34.06;101378.00;5013865;28;20034;-64
2022/04/19 06:10:20;;;;;;;5.43;2.70;;;;;;;20.38;34.45;101382.34;5014203;28;20040;-66
2022/04/19 06:12:45;;;;;;;4.68;2.80;;;;;;;20.41;34.59;101382.09;5013388;28;20022;-66
2022/04/19 06:15:11;;;;;;;4.63;2.45;;;;;;;20.44;34.73;101387.13;5013764;28;20037;-65
2022/04/19 06:17:38;;;;;;;4.93;2.70;;;;;;;20.47;34.67;101389.53;5014150;28;20068;-66
2022/04/19 06:20:04;;;;;;;4.78;2.80;;;;;;;20.48;34.64;101391.19;5012860;28;20497;-65
2022/04/19 06:22:30;;;;;;;5.47;2.95;;;;;;;20.47;34.93;101391.31;5014079;28;20037;-64
2022/04/19 06:24:56;;;;;;;4.95;2.50;;;;;;;20.44;35.25;101392.41;5013695;28;20030;-65
2022/04/19 06:27:22;;;;;;;4.00;2.30;;;;;;;20.40;35.30;101393.63;5013304;28;20495;-64
2022/04/19 06:29:50;;;;;;;5.25;2.47;;;;;;;20.39;35.37;101388.47;5013962;28;20100;-64
2022/04/19 06:32:15;;;;;;;5.55;2.70;;;;;;;20.41;35.45;101386.53;5013922;28;20062;-64
2022/04/19 06:34:40;;;;;;;5.38;2.67;;;;;;;20.42;35.42;101394.34;5012998;28;20477;-65
2022/04/19 06:37:06;;;;;;;5.93;2.50;;;;;;;20.44;35.42;101388.91;5013383;28;20039;-65
2022/04/19 06:39:31;;;;;;;4.97;3.17;;;;;;;20.45;35.58;101396.72;5013565;28;20774;-65
2022/04/19 06:41:59;;;;;;;4.67;2.40;;;;;;;20.47;35.47;101392.16;5012842;28;20120;-66
2022/04/19 06:44:24;;;;;;;5.45;2.33;;;;;;;20.47;35.60;101399.25;5013712;28;20714;-66
2022/04/19 06:46:50;;;;;;;4.22;2.50;;;;;;;20.47;35.61;101394.81;5012830;28;20022;-67
2022/04/19 06:49:19;;;;;;;4.28;2.47;;;;;;;20.46;35.76;101389.66;5013557;28;20041;-66
2022/04/19 06:51:44;;;;;;;3.85;2.22;;;;;;;20.48;35.81;101401.78;5013698;28;20022;-63
2022/04/19 06:54:12;;;;;;;4.07;2.30;;;;;;;20.49;35.88;101389.41;5012299;28;20028;-62
2022/04/19 06:56:45;;;;;;;4.85;2.53;;;;;;;20.51;35.76;101400.69;5013754;28;20283;-64
2022/04/19 06:59:11;;;;;;;5.45;2.25;;;;;;;20.54;35.97;101400.44;5013371;28;20021;-64
2022/04/19 07:01:40;;;;;;;5.43;2.45;;;;;;;20.55;35.84;101395.97;5012403;28;20022;-63
2022/04/19 07:04:07;;;;;;;4.53;2.30;;;;;;;20.58;35.80;101401.00;5013042;28;20034;-62
2022/04/19 07:06:33;;;;;;;4.32;2.40;;;;;;;20.60;35.86;101396.44;5013155;28;20018;-61
2022/04/19 07:08:58;;;;;;;5.80;2.25;;;;;;;20.65;35.44;101400.41;5012610;28;20474;-66
2022/04/19 07:11:25;;;;;;;6.00;2.60;;;;;;;20.71;35.51;101400.88;5014121;28;20084;-68
2022/04/19 07:13:50;;;;;;;5.88;2.28;;;;;;;20.81;35.38;101399.13;5013290;28;20030;-66
2022/04/19 07:16:15;;;;;;;5.60;2.60;;;;;;;20.95;35.11;101409.41;5012966;28;20072;-69
2022/04/19 07:18:41;;;;;;;6.63;2.43;;;;;;;21.11;34.80;101402.78;5014685;28;20164;-66
2022/04/19 07:26:45;;;;;;;4.10;2.15;;;;;;;21.41;34.39;101406.44;5016693;28;20061;-65
2022/04/19 07:29:11;;;;;;;5.35;2.25;;;;;;;21.43;34.10;101413.31;5011956;28;20096;-65
2022/04/19 07:31:38;;;;;;;3.95;1.85;;;;;;;21.48;33.97;101404.94;5012541;28;20034;-65
2022/04/19 07:34:03;;;;;;;4.28;2.10;;;;;;;21.50;34.12;101408.31;5012497;28;20450;-64
2022/04/19 07:36:29;;;;;;;3.90;2.13;;;;;;;21.49;33.92;101411.94;5012579;28;20025;-64
2022/04/19 07:38:54;;;;;;;5.00;2.30;;;;;;;21.48;34.14;101424.38;5012781;28;20368;-64
2022/04/19 07:41:21;;;;;;;4.10;2.05;;;;;;;21.45;34.63;101421.94;5013030;28;20282;-64
2022/04/19 07:43:47;;;;;;;5.20;2.65;;;;;;;21.46;34.18;101414.81;5012339;28;20112;-65
2022/04/19 07:46:16;;;;;;;4.40;2.20;;;;;;;21.45;34.19;101416.66;5012587;28;20022;-65
2022/04/19 07:48:47;;;;;;;3.80;1.95;;;;;;;21.45;34.27;101414.00;5012628;28;20481;-64
2022/04/19 07:51:13;;;;;;;4.57;2.15;;;;;;;21.45;34.23;101416.66;5011854;28;20038;-64
2022/04/19 07:53:38;;;;;;;3.35;1.80;;;;;;;21.44;34.43;101414.97;5012912;28;20398;-64
2022/04/19 07:56:04;;;;;;;4.80;2.08;;;;;;;21.45;34.32;101418.47;5012418;28;20477;-66
2022/04/19 07:58:29;;;;;;;3.63;1.80;;;;;;;21.44;34.43;101416.78;5011947;28;20105;-64
2022/04/19 08:00:55;;;;;;;4.40;2.00;;;;;;;21.43;34.53;101420.38;5012278;28;20048;-64
2022/04/19 08:03:20;;;;;;;5.13;1.90;;;;;;;21.42;34.59;101419.56;5012776;28;20034;-64
2022/04/19 08:05:45;;;;;;;5.20;1.80;;;;;;;21.43;34.46;101423.91;5012017;28;20026;-65
2022/04/19 08:08:11;;;;;;;3.95;1.75;;;;;;;21.42;34.52;101422.22;5012566;28;20286;-65
2022/04/19 08:10:36;;;;;;;4.90;1.80;;;;;;;21.41;34.54;101414.41;5012611;28;20022;-65
2022/04/19 08:13:03;;;;;;;4.07;1.80;;;;;;;21.39;34.54;101411.88;5014515;28;20271;-65
2022/04/19 08:15:32;;;;;;;4.25;2.03;;;;;;;21.39;34.54;101419.81;5016086;28;20042;-64
2022/04/19 08:17:57;;;;;;;3.85;1.60;;;;;;;21.39;34.42;101417.19;5016339;28;20033;-64
2022/04/19 08:20:26;;;;;;;3.28;1.73;;;;;;;21.38;34.43;101412.88;5015495;28;20117;-63
2022/04/19 08:22:52;;;;;;;4.65;1.73;;;;;;;21.37;33.97;101405.88;5015997;28;20474;-66
2022/04/19 08:25:17;;;;;;;3.90;1.92;;;;;;;21.41;34.04;101407.25;5016369;28;20053;-64
2022/04/19 08:27:47;;;;;;;4.78;1.95;;;;;;;21.44;34.16;101409.66;5016584;28;20100;-63
2022/04/19 08:30:17;;;;;;;4.57;1.85;;;;;;;21.45;34.20;101405.22;5015894;28;20030;-64
2022/04/19 08:32:44;;;;;;;3.45;1.75;;;;;;;21.43;34.58;101405.34;5015740;28;20052;-64
2022/04/19 08:35:09;;;;;;;4.03;1.80;;;;;;;21.42;34.51;101402.81;5015988;28;20088;-64
2022/04/19 08:37:35;;;;;;;4.22;1.70;;;;;;;21.43;34.45;101402.69;5017655;28;20022;-63
2022/04/19 08:40:03;;;;;;;4.55;1.88;;;;;;;21.53;34.10;101405.41;5016685;28;20030;-66
2022/04/19 08:42:32;;;;;;;3.38;1.65;;;;;;;21.60;33.53;101405.72;5016044;28;20053;-67
2022/04/19 08:45:02;;;;;;;3.55;1.70;;;;;;;21.60;33.70;101406.53;5016957;28;20358;-65
2022/04/19 08:47:30;;;;;;;3.40;1.83;;;;;;;21.61;33.85;101394.13;5017462;28;20056;-65
2022/04/19 08:49:55;;;;;;;3.00;1.65;;;;;;;21.60;34.04;101403.06;5015521;28;20025;-65
2022/04/19 08:52:20;;;;;;;4.97;1.60;;;;;;;21.56;34.06;101400.69;5015782;28;20021;-64
2022/04/19 08:57:31;;;;;;;4.53;2.17;;;;;;;21.52;34.49;101399.28;5015994;28;20432;-64
2022/04/19 09:00:02;;;;;;;4.07;1.52;;;;;;;21.51;34.17;101402.91;5015617;28;20033;-63
2022/04/19 09:02:29;;;;;;;4.32;1.60;;;;;;;21.51;34.53;101404.72;5015026;28;20032;-64
2022/04/19 09:05:17;;;;;;;3.42;1.50;;;;;;;21.49;34.41;101401.34;5015420;28;20033;-64
2022/04/19 09:07:45;;;;;;;3.85;1.70;;;;;;;21.49;34.49;101396.03;5014492;28;20121;-64
2022/04/19 09:10:15;;;;;;;2.65;1.20;;;;;;;21.49;34.49;101390.72;5015213;28;20038;-64
2022/04/19 09:13:09;;;;;;;3.08;1.33;;;;;;;21.50;34.55;101400.38;5015592;28;20374;-64
2022/04/19 09:15:45;;;;;;;3.03;1.40;;;;;;;21.50;34.57;101390.59;5014430;28;20045;-63
2022/04/19 09:18:30;;;;;;;3.97;1.40;;;;;;;21.49;34.57;101391.59;5015130;28;20022;-64
2022/04/19 09:20:57;;;;;;;3.55;1.50;;;;;;;21.48;34.65;101394.34;5015009;28;20105;-64
2022/04/19 09:23:23;;;;;;;3.33;1.55;;;;;;;21.46;34.61;101391.81;5013203;28;20508;-64
2022/04/19 09:25:57;;;;;;;2.83;1.30;;;;;;;21.46;34.56;101390.97;5014867;28;20489;-64
2022/04/19 09:28:24;;;;;;;4.55;1.70;;;;;;;21.45;34.66;101389.31;5014364;28;20026;-64
2022/04/19 09:30:59;;;;;;;3.60;1.33;;;;;;;21.43;34.72;101380.63;5014948;28;20026;-64
2022/04/19 09:33:26;;;;;;;4.38;1.65;;;;;;;21.42;34.82;101387.75;5015152;28;20363;-63
2022/04/19 09:35:56;;;;;;;2.60;1.40;;;;;;;21.41;34.73;101386.06;5013946;28;20018;-64
2022/04/19 09:38:42;;;;;;;2.90;1.58;;;;;;;21.41;34.60;101385.22;5014944;28;20030;-64
2022/04/19 09:41:09;;;;;;;2.80;1.40;;;;;;;21.41;34.74;101379.94;5014791;28;20093;-64
2022/04/19 09:43:34;;;;;;;3.13;1.42;;;;;;;21.39;34.81;101390.66;5014279;28;20025;-64
2022/04/19 09:46:03;;;;;;;2.92;1.20;;;;;;;21.38;34.91;101381.88;5014423;28;20049;-64
2022/04/19 09:48:37;;;;;;;3.50;1.50;;;;;;;21.38;34.91;101381.06;5014520;28;20450;-64
2022/04/19 09:51:04;;;;;;;3.35;1.40;;;;;;;21.37;34.80;101372.22;5013593;28;20080;-65
2022/04/19 09:53:37;;;;;;;4.18;1.63;;;;;;;21.40;34.42;101380.91;5014566;28;20034;-71
2022/04/19 09:56:08;;;;;;;4.07;1.50;;;;;;;21.42;34.42;101384.25;5014513;28;20029;-64
2022/04/19 09:58:33;;;;;;;3.33;1.30;;;;;;;21.41;34.14;101374.63;5013908;28;20065;-64
2022/04/19 10:01:02;;;;;;;3.38;1.50;;;;;;;21.40;34.44;101375.63;5014240;28;20508;-64
2022/04/19 10:08:57;;;;;;;3.35;1.52;;;;;;;21.40;34.52;101367.66;5014248;28;20504;-63
2022/04/19 10:11:26;;;;;;;3.90;1.70;;;;;;;21.41;34.18;101364.00;5013670;28;20026;-64
2022/04/19 10:13:55;;;;;;;3.65;1.40;;;;;;;21.41;34.22;101364.00;5013853;28;20470;-64
2022/04/19 10:16:21;;;;;;;4.28;1.50;;;;;;;21.41;34.41;101364.00;5014287;28;20498;-63
2022/04/19 10:18:46;;;;;;;4.68;1.50;;;;;;;21.38;34.62;101368.63;5013554;28;20076;-63
2022/04/19 10:21:16;;;;;;;5.05;1.48;;;;;;;21.36;34.69;101367.94;5013894;28;20025;-65
2022/04/19 10:23:43;;;;;;;3.08;1.30;;;;;;;21.35;34.90;101366.25;5014298;28;20030;-63
2022/04/19 10:26:15;;;;;;;2.95;1.42;;;;;;;21.36;34.72;101372.38;5012799;28;20463;-63
2022/04/19 10:28:40;;;;;;;5.88;1.30;;;;;;;21.36;34.75;101359.97;5014469;28;20112;-64
2022/04/19 10:31:06;;;;;;;2.65;1.20;;;;;;;21.46;34.46;101367.09;5014837;28;20049;-63
2022/04/19 10:33:52;;;;;;;3.30;1.33;;;;;;;21.53;34.13;101366.47;5013446;28;20026;-64
2022/04/19 10:36:17;;;;;;;4.80;1.40;;;;;;;21.60;34.27;101368.56;5013756;28;20026;-63
2022/04/19 10:38:44;;;;;;;2.90;1.20;;;;;;;21.64;34.17;101365.53;5013145;28;20037;-64
2022/04/19 10:41:10;;;;;;;4.03;1.40;;;;;;;21.66;34.01;101352.97;5013441;28;20271;-63
2022/04/19 10:43:38;;;;;;;3.05;1.33;;;;;;;21.70;34.00;101356.19;5014820;28;20029;-62
2022/04/19 10:46:17;;;;;;;4.13;1.30;;;;;;;21.74;33.95;101362.91;5013274;28;20188;-63
2022/04/19 10:49:24;;;;;;;3.08;1.20;;;;;;;21.77;34.05;101351.19;5013827;28;20045;-63
2022/04/19 10:51:59;;;;;;;2.92;1.13;;;;;;;21.76;34.14;101357.44;5021727;28;20042;-61
2022/04/19 10:55:02;;;;;;;2.60;1.20;;;;;;;21.75;33.91;101348.66;5013080;28;20038;-64
2022/04/19 11:00:33;;;;;;;3.30;1.20;;;;;;;21.83;33.91;101340.03;5013094;28;20088;-66
2022/04/19 11:03:00;;;;;;;4.15;1.30;;;;;;;21.83;33.84;101340.84;5014280;28;20075;-65
2022/04/19 11:05:47;;;;;;;4.38;1.30;;;;;;;21.85;33.84;101344.19;5013641;28;20466;-64
2022/04/19 11:08:30;;;;;;;2.55;1.15;;;;;;;21.85;34.14;101343.38;5012362;28;20033;-64
2022/04/19 11:10:55;;;;;;;3.13;1.20;;;;;;;21.84;34.29;101336.38;5013195;28;20091;-64
2022/04/19 11:13:29;;;;;;;2.50;1.10;;;;;;;21.82;34.02;101333.03;5013499;28;20029;-65
2022/04/19 11:15:59;;;;;;;4.20;1.40;;;;;;;21.83;34.22;101332.91;5012698;28;20053;-64
2022/04/19 11:18:26;;;;;;;3.10;1.45;;;;;;;21.84;33.90;101329.28;5014238;28;20057;-64
2022/04/19 11:20:57;;;;;;;5.00;1.25;;;;;;;21.88;33.76;101328.00;5014577;28;20096;-63
2022/04/19 11:23:27;;;;;;;3.42;1.38;;;;;;;21.93;33.86;101324.94;5013443;28;20092;-62
2022/04/19 11:25:56;;;;;;;2.83;1.30;;;;;;;22.00;33.82;101322.56;5014561;28;20049;-64
2022/04/19 11:28:26;;;;;;;4.05;1.42;;;;;;;22.03;33.75;101317.84;5013509;28;20096;-64
2022/04/19 11:30:57;;;;;;;3.75;1.65;;;;;;;22.07;33.41;101313.91;5013031;28;20093;-64
2022/04/19 11:33:34;;;;;;;2.50;1.17;;;;;;;22.08;33.52;101317.44;5013174;28;20617;-65
2022/04/19 11:36:04;;;;;;;3.05;1.13;;;;;;;22.10;33.71;101315.47;5012097;28;20022;-65
2022/04/19 11:38:31;;;;;;;2.25;1.10;;;;;;;22.10;33.84;101311.00;5013348;28;20113;-65
2022/04/19 11:46:46;;;;;;;2.90;1.17;;;;;;;22.16;33.64;101311.41;5014126;28;20161;-65
2022/04/19 11:49:25;;;;;;;2.38;1.00;;;;;;;22.15;33.99;101315.88;5012242;28;20026;-63
2022/04/19 11:51:56;;;;;;;3.88;1.10;;;;;;;22.14;33.83;101321.31;5013138;28;20042;-63
2022/04/19 11:54:25;;;;;;;3.17;1.20;;;;;;;22.12;33.72;101316.16;5013045;28;20018;-64
2022/04/19 11:56:57;;;;;;;3.53;1.30;;;;;;;22.12;33.63;101320.63;5012331;28;20096;-65
2022/04/19 11:59:26;;;;;;;2.78;1.10;;;;;;;22.13;33.82;101315.19;5013058;28;20076;-64
2022/04/19 12:01:53;;;;;;;4.90;1.50;;;;;;;22.12;34.20;101320.63;5012655;28;20029;-61
2022/04/19 12:04:18;;;;;;;2.88;1.30;;;;;;;22.15;34.08;101317.72;5012197;28;20040;-64